Time;durP1;ratioP1;P1;durP2;ratioP2;P2;SDS_P1;SDS_P2;PMS_P1;PMS_P2;Temp;Humidity;BMP_temperature;BMP_pressure;BME280_temperature;BME280_humidity;BME280_pressure;Samples;Min_cycle;Max_cycle;Signal;HPM_P1;HPM_P2
2022/03/07 12:44:47;;;;;;;2.25;2.15;;;5.40;99.90;;;;;;5131780;27;20468;-73
2022/03/07 12:47:13;;;;;;;2.70;2.50;;;5.50;99.90;;;;;;5131834;28;20250;-74
2022/03/07 12:49:40;;;;;;;2.20;2.10;;;5.70;99.90;;;;;;5113320;28;20257;-74
2022/03/07 12:52:08;;;;;;;2.97;2.78;;;5.80;99.90;;;;;;5113387;28;20174;-74
2022/03/07 12:54:36;;;;;;;2.45;2.33;;;6.00;99.90;;;;;;5131601;28;20691;-74
2022/03/07 12:57:03;;;;;;;2.38;2.28;;;6.10;99.90;;;;;;5131473;28;20543;-74
2022/03/07 12:59:31;;;;;;;3.50;2.60;;;6.30;99.90;;;;;;5131511;28;20166;-74
2022/03/07 13:01:58;;;;;;;2.45;2.33;;;6.40;99.90;;;;;;5131470;28;20163;-74
2022/03/07 13:04:26;;;;;;;2.35;2.25;;;6.50;99.90;;;;;;5131387;28;20198;-74
2022/03/07 13:06:55;;;;;;;2.33;2.25;;;6.50;99.90;;;;;;5131416;28;20241;-74
2022/03/07 13:09:27;;;;;;;2.55;2.38;;;6.70;99.90;;;;;;5112889;28;20294;-74
2022/03/07 13:11:54;;;;;;;2.38;2.28;;;6.80;99.90;;;;;;5131550;28;20689;-74
2022/03/07 13:14:28;;;;;;;2.40;2.30;;;6.90;99.90;;;;;;5131232;28;20190;-74
2022/03/07 13:17:02;;;;;;;1.85;1.80;;;7.10;99.90;;;;;;5131263;28;20269;-74
2022/03/07 13:19:27;;;;;;;2.08;1.98;;;7.20;99.90;;;;;;5131184;28;20194;-74
2022/03/07 13:21:53;;;;;;;2.30;2.20;;;7.30;99.90;;;;;;5131092;28;20170;-74
2022/03/07 13:24:23;;;;;;;4.00;2.35;;;7.50;99.90;;;;;;5131048;28;20547;-74
2022/03/07 13:26:56;;;;;;;2.08;1.98;;;7.60;99.90;;;;;;5131045;28;20651;-74
2022/03/07 13:29:24;;;;;;;2.30;2.20;;;7.60;99.90;;;;;;5130974;28;20655;-74
2022/03/07 13:31:53;;;;;;;1.88;1.88;;;7.70;99.90;;;;;;5130853;28;20166;-74
2022/03/07 13:34:20;;;;;;;2.33;2.13;;;7.80;99.90;;;;;;5130845;28;20174;-75
2022/03/07 13:36:51;;;;;;;2.63;2.20;;;7.90;99.90;;;;;;5130819;28;20536;-74
2022/03/07 13:39:28;;;;;;;1.92;1.85;;;7.90;99.90;;;;;;5130767;28;20183;-74
2022/03/07 13:42:01;;;;;;;2.20;2.10;;;8.00;99.90;;;;;;5130795;27;20169;-74
2022/03/07 13:44:29;;;;;;;1.70;1.70;;;8.10;99.90;;;;;;5129211;28;20305;-74
2022/03/07 13:47:03;;;;;;;1.80;1.80;;;8.20;99.90;;;;;;5129311;28;20175;-74
2022/03/07 13:50:07;;;;;;;2.00;1.90;;;8.20;99.90;;;;;;5129343;28;20275;-75
2022/03/07 13:52:38;;;;;;;1.80;1.80;;;8.30;99.90;;;;;;5108869;28;20206;-75
2022/03/07 13:55:19;;;;;;;3.47;2.15;;;8.30;99.90;;;;;;5122913;27;20167;-75
2022/03/07 13:57:53;;;;;;;2.33;1.98;;;8.40;99.90;;;;;;5116725;28;20224;-75
2022/03/07 14:00:19;;;;;;;1.73;1.73;;;8.60;99.90;;;;;;5116766;28;20526;-74
2022/03/07 14:02:49;;;;;;;2.85;2.17;;;8.70;99.90;;;;;;5116542;28;20190;-74
2022/03/07 14:05:17;;;;;;;2.17;2.08;;;8.90;99.90;;;;;;5116593;28;20530;-74
2022/03/07 14:07:48;;;;;;;3.72;2.13;;;8.90;99.90;;;;;;5116454;28;20166;-74
2022/03/07 14:10:16;;;;;;;1.88;1.77;;;8.90;99.90;;;;;;5116490;28;20167;-75
2022/03/07 14:12:49;;;;;;;2.20;2.10;;;9.00;99.90;;;;;;5116473;28;20174;-75
2022/03/07 14:15:14;;;;;;;2.08;1.80;;;9.10;99.90;;;;;;5116488;28;20260;-75
2022/03/07 14:17:40;;;;;;;1.77;1.70;;;9.20;99.90;;;;;;5116341;28;20651;-75
2022/03/07 14:20:08;;;;;;;1.83;1.83;;;9.20;99.90;;;;;;5116239;28;20170;-74
2022/03/07 14:22:34;;;;;;;2.00;1.90;;;9.20;99.90;;;;;;5116123;28;20167;-74
2022/03/07 14:25:01;;;;;;;3.03;2.08;;;9.30;99.90;;;;;;5116167;28;20163;-74
2022/03/07 14:27:34;;;;;;;2.17;1.98;;;9.50;99.90;;;;;;5114984;28;20527;-74
2022/03/07 14:30:03;;;;;;;1.60;1.60;;;9.60;99.90;;;;;;5116152;27;20216;-74
2022/03/07 14:32:30;;;;;;;3.75;2.00;;;9.80;99.90;;;;;;5114845;28;20175;-76
2022/03/07 14:34:56;;;;;;;2.10;2.00;;;9.80;99.90;;;;;;5116075;28;20188;-75
2022/03/07 14:37:24;;;;;;;2.00;1.90;;;9.80;99.90;;;;;;5114755;28;20204;-75
2022/03/07 14:39:51;;;;;;;1.95;1.90;;;9.80;99.90;;;;;;5115895;28;20187;-74
2022/03/07 14:42:17;;;;;;;2.15;2.05;;;9.80;99.90;;;;;;5115883;28;20163;-74
2022/03/07 14:44:42;;;;;;;2.40;2.15;;;9.60;99.90;;;;;;5115682;27;20264;-74
2022/03/07 14:47:08;;;;;;;3.45;1.95;;;9.50;99.90;;;;;;5115660;28;20207;-74
2022/03/07 14:49:36;;;;;;;2.10;2.00;;;9.60;99.90;;;;;;5115759;28;20253;-74
2022/03/07 14:52:04;;;;;;;4.00;1.80;;;9.70;99.90;;;;;;5115706;28;20178;-74
2022/03/07 14:54:29;;;;;;;1.95;1.95;;;9.70;99.90;;;;;;5114482;28;20171;-73
2022/03/07 14:56:55;;;;;;;2.40;2.30;;;9.70;99.90;;;;;;5115564;28;20552;-74
2022/03/07 14:59:21;;;;;;;2.50;1.80;;;9.80;99.90;;;;;;5115598;28;20219;-74
2022/03/07 15:01:47;;;;;;;2.30;2.20;;;9.90;99.90;;;;;;5115313;28;20163;-74
2022/03/07 15:04:12;;;;;;;2.10;2.00;;;9.90;99.90;;;;;;5115302;28;20202;-73
2022/03/07 15:06:38;;;;;;;2.33;1.90;;;9.90;99.90;;;;;;5114425;28;20175;-74
2022/03/07 15:09:09;;;;;;;4.72;2.00;;;9.90;99.90;;;;;;5115352;28;20674;-74
2022/03/07 15:11:38;;;;;;;1.88;1.80;;;9.90;99.90;;;;;;5115261;28;20166;-74
2022/03/07 15:14:08;;;;;;;1.90;1.80;;;9.90;99.90;;;;;;5115247;28;20182;-74
2022/03/07 15:16:34;;;;;;;2.30;1.90;;;10.00;99.90;;;;;;5113856;28;20167;-74
2022/03/07 15:19:11;;;;;;;1.88;1.77;;;10.10;99.90;;;;;;5115132;28;20640;-74
2022/03/07 15:21:41;;;;;;;2.55;1.95;;;10.10;99.90;;;;;;5115123;28;20181;-74
2022/03/07 15:24:09;;;;;;;3.28;2.08;;;10.00;99.90;;;;;;5115055;28;20167;-74
2022/03/07 15:26:35;;;;;;;2.38;2.28;;;10.20;99.90;;;;;;5115029;28;20171;-74
2022/03/07 15:29:07;;;;;;;2.33;2.22;;;10.00;99.90;;;;;;5114947;28;20265;-74
2022/03/07 15:31:33;;;;;;;2.50;2.38;;;10.10;99.90;;;;;;5114971;28;20240;-74
2022/03/07 15:33:59;;;;;;;2.03;1.92;;;9.90;99.90;;;;;;5114711;28;20226;-74
2022/03/07 15:36:25;;;;;;;2.25;2.15;;;9.90;99.90;;;;;;5114897;28;20191;-74
2022/03/07 15:38:51;;;;;;;1.90;1.80;;;10.00;99.90;;;;;;5113444;28;20221;-77
2022/03/07 15:41:18;;;;;;;2.15;2.05;;;10.00;99.90;;;;;;5113263;28;20163;-77
2022/03/07 15:43:45;;;;;;;3.17;2.65;;;10.00;99.90;;;;;;5114491;28;20306;-77
2022/03/07 15:46:13;;;;;;;2.20;2.10;;;10.10;99.90;;;;;;5114605;28;20519;-72
2022/03/07 15:48:39;;;;;;;2.55;1.90;;;10.00;99.90;;;;;;5114510;28;20174;-72
2022/03/07 15:51:04;;;;;;;2.25;2.05;;;9.90;99.90;;;;;;5114527;28;20167;-72
2022/03/07 15:53:30;;;;;;;2.30;2.20;;;9.80;99.90;;;;;;5114350;28;20683;-72
2022/03/07 15:55:59;;;;;;;1.80;1.77;;;9.60;99.90;;;;;;5114404;28;20160;-72
2022/03/07 15:58:26;;;;;;;3.08;2.10;;;9.60;99.90;;;;;;5114452;28;20185;-72
2022/03/07 16:00:51;;;;;;;1.90;1.80;;;9.60;99.90;;;;;;5114426;28;20178;-72
2022/03/07 16:03:17;;;;;;;2.63;2.53;;;9.50;99.90;;;;;;5114291;28;20167;-72
2022/03/07 16:05:43;;;;;;;2.60;2.30;;;9.50;99.90;;;;;;5114301;28;20250;-72
2022/03/07 16:08:12;;;;;;;2.10;2.00;;;9.50;99.90;;;;;;5114291;28;20174;-72
2022/03/07 16:10:41;;;;;;;2.17;2.08;;;9.50;99.90;;;;;;5114178;28;20171;-72
2022/03/07 16:13:09;;;;;;;2.17;2.08;;;9.50;99.90;;;;;;5112835;28;20558;-72
2022/03/07 16:15:35;;;;;;;3.60;2.20;;;9.50;99.90;;;;;;5114099;28;20171;-72
2022/03/07 16:18:03;;;;;;;2.25;2.15;;;9.50;99.90;;;;;;5113838;28;20175;-72
2022/03/07 16:20:28;;;;;;;2.30;2.20;;;9.50;99.90;;;;;;5112786;28;20590;-72
2022/03/07 16:22:54;;;;;;;5.20;2.22;;;9.40;99.90;;;;;;5113968;28;20167;-73
2022/03/07 16:25:19;;;;;;;4.50;4.05;;;9.40;99.90;;;;;;5112665;28;20179;-72
2022/03/07 16:27:45;;;;;;;3.17;2.97;;;9.30;99.90;;;;;;5113969;28;20163;-72
2022/03/07 16:30:11;;;;;;;2.42;2.33;;;9.20;99.90;;;;;;5112704;28;20221;-72
2022/03/07 16:32:37;;;;;;;2.50;2.40;;;9.10;99.90;;;;;;5113792;28;20179;-72
2022/03/07 16:35:04;;;;;;;2.38;2.13;;;9.00;99.90;;;;;;5113996;28;20174;-72
2022/03/07 16:37:29;;;;;;;2.85;2.58;;;8.80;99.90;;;;;;5113871;28;20163;-72
2022/03/07 16:39:57;;;;;;;2.38;2.28;;;8.70;99.90;;;;;;5113780;28;20550;-72
2022/03/07 16:42:23;;;;;;;2.92;2.10;;;8.60;99.90;;;;;;5113672;28;20167;-72
2022/03/07 16:44:49;;;;;;;2.42;2.30;;;8.50;99.90;;;;;;5113843;28;20527;-72
2022/03/07 16:47:15;;;;;;;2.38;2.28;;;8.30;99.90;;;;;;5113778;28;20266;-72
2022/03/07 16:49:40;;;;;;;3.30;2.50;;;8.20;99.90;;;;;;5113816;28;20175;-72
2022/03/07 16:52:07;;;;;;;3.63;2.28;;;8.10;99.90;;;;;;5112431;28;20506;-72
2022/03/07 16:54:33;;;;;;;2.42;2.33;;;8.00;99.90;;;;;;5113605;28;20201;-72
2022/03/07 16:56:58;;;;;;;2.70;2.60;;;7.90;99.90;;;;;;5113650;28;20547;-72
2022/03/07 16:59:25;;;;;;;3.22;2.88;;;7.80;99.90;;;;;;5113615;28;20190;-72
2022/03/07 17:01:50;;;;;;;2.72;2.55;;;7.70;99.90;;;;;;5112429;28;20265;-72
2022/03/07 17:04:16;;;;;;;2.50;2.40;;;7.40;99.90;;;;;;5113592;28;20167;-72
2022/03/07 17:06:41;;;;;;;2.50;2.30;;;7.20;99.90;;;;;;5113567;28;20167;-72
2022/03/07 17:09:07;;;;;;;2.40;2.30;;;7.10;99.90;;;;;;5113538;28;20171;-72
2022/03/07 17:11:33;;;;;;;2.58;2.40;;;6.90;99.90;;;;;;5113531;28;20186;-72
2022/03/07 17:13:59;;;;;;;2.60;2.45;;;6.70;99.90;;;;;;5113499;28;20201;-72
2022/03/07 17:16:24;;;;;;;2.50;2.40;;;6.50;99.90;;;;;;5113439;28;20167;-72
2022/03/07 17:18:50;;;;;;;2.90;2.70;;;6.30;99.90;;;;;;5113529;28;20797;-73
2022/03/07 17:21:16;;;;;;;2.75;2.65;;;6.20;99.90;;;;;;5113969;28;20468;-72
2022/03/07 17:23:41;;;;;;;2.63;2.28;;;6.10;99.90;;;;;;5113627;28;20171;-72
2022/03/07 17:26:08;;;;;;;2.97;2.35;;;5.90;99.90;;;;;;5113261;28;20202;-72
